Time;durP1;ratioP1;P1;durP2;ratioP2;P2;SDS_P1;SDS_P2;PMS_P1;PMS_P2;Temp;Humidity;BMP_temperature;BMP_pressure;BME280_temperature;BME280_humidity;BME280_pressure;Samples;Min_cycle;Max_cycle;Signal;HPM_P1;HPM_P2
2022/08/17 00:00:46;;;;;;;7.17;4.55;;;;;;;19.46;100.00;98634.70;1722878;82;21222;-76
2022/08/17 00:03:22;;;;;;;10.45;4.78;;;;;;;19.47;100.00;98634.56;1722344;82;21044;-75
2022/08/17 00:06:02;;;;;;;6.65;5.53;;;;;;;19.48;100.00;98634.08;1719145;82;20989;-76
2022/08/17 00:08:35;;;;;;;5.95;5.20;;;;;;;19.46;100.00;98628.11;1720006;83;21052;-76
2022/08/17 00:11:05;;;;;;;7.10;5.25;;;;;;;19.42;100.00;98624.91;1721974;82;20976;-76
2022/08/17 00:13:36;;;;;;;7.20;5.05;;;;;;;19.41;100.00;98626.36;1723157;82;21138;-76
2022/08/17 00:16:07;;;;;;;7.78;5.30;;;;;;;19.38;100.00;98622.72;1723327;82;21109;-76
2022/08/17 00:18:34;;;;;;;6.20;5.15;;;;;;;19.37;100.00;98623.20;1718182;83;20984;-76
2022/08/17 00:21:02;;;;;;;6.30;5.12;;;;;;;19.38;100.00;98626.19;1712723;82;21052;-76
2022/08/17 00:23:28;;;;;;;7.67;5.15;;;;;;;19.40;100.00;98623.38;1685556;82;20972;-76
2022/08/17 00:25:55;;;;;;;5.75;5.22;;;;;;;19.39;100.00;98621.71;1717875;83;21148;-77
2022/08/17 00:28:21;;;;;;;5.78;5.15;;;;;;;19.37;100.00;98625.00;1676850;85;20995;-77
2022/08/17 00:30:49;;;;;;;7.03;4.83;;;;;;;19.37;100.00;98628.96;1669550;85;21017;-76
2022/08/17 00:33:20;;;;;;;6.20;5.17;;;;;;;19.35;100.00;98623.83;1703112;83;21021;-76
2022/08/17 00:35:47;;;;;;;5.87;5.30;;;;;;;19.36;100.00;98628.61;1709355;82;21043;-76
2022/08/17 00:38:13;;;;;;;5.25;4.53;;;;;;;19.36;100.00;98627.30;1688167;84;21519;-76
2022/08/17 00:40:49;;;;;;;9.30;5.28;;;;;;;19.36;100.00;98635.20;1684046;84;20991;-76
2022/08/17 00:43:26;;;;;;;9.05;4.80;;;;;;;19.38;100.00;98630.63;1665787;84;20996;-74
2022/08/17 00:45:52;;;;;;;6.58;4.62;;;;;;;19.40;100.00;98628.17;1669691;84;21121;-74
2022/08/17 00:48:19;;;;;;;8.40;5.65;;;;;;;19.44;100.00;98623.45;1666026;83;21101;-74
2022/08/17 00:51:00;;;;;;;6.50;5.00;;;;;;;19.45;100.00;98621.16;1671387;85;21479;-75
2022/08/17 00:53:28;;;;;;;6.55;4.78;;;;;;;19.44;100.00;98626.09;1674062;85;21484;-75
2022/08/17 00:55:58;;;;;;;5.75;4.60;;;;;;;19.39;100.00;98619.91;1665147;84;21503;-75
2022/08/17 00:58:24;;;;;;;7.22;5.37;;;;;;;19.37;100.00;98618.41;1685801;85;21010;-75
2022/08/17 01:00:51;;;;;;;9.28;5.45;;;;;;;19.35;100.00;98619.03;1667993;84;21023;-75
2022/08/17 01:03:20;;;;;;;6.25;5.62;;;;;;;19.35;100.00;98624.31;1667407;84;21058;-76
2022/08/17 01:05:48;;;;;;;5.75;5.25;;;;;;;19.36;100.00;98623.34;1655034;85;21030;-76
2022/08/17 01:08:18;;;;;;;6.15;5.00;;;;;;;19.36;100.00;98624.66;1664046;84;21531;-75
2022/08/17 01:10:48;;;;;;;7.80;5.55;;;;;;;19.33;100.00;98619.17;1676591;85;21022;-75
2022/08/17 01:13:15;;;;;;;7.42;5.30;;;;;;;19.33;100.00;98620.49;1672867;85;21114;-75
2022/08/17 01:16:03;;;;;;;8.05;5.95;;;;;;;19.34;100.00;98623.96;1672583;85;21169;-75
2022/08/17 01:18:29;;;;;;;7.10;5.95;;;;;;;19.35;100.00;98621.19;1658139;84;21049;-75
2022/08/17 01:21:00;;;;;;;6.12;5.40;;;;;;;19.37;100.00;98624.52;1674293;84;21475;-76
2022/08/17 01:23:27;;;;;;;6.37;5.80;;;;;;;19.38;100.00;98618.77;1672042;85;20998;-75
2022/08/17 01:25:56;;;;;;;9.08;5.53;;;;;;;19.37;100.00;98612.66;1659553;84;21470;-75
2022/08/17 01:28:24;;;;;;;8.40;5.22;;;;;;;19.31;100.00;98617.16;1659081;84;21128;-76
2022/08/17 01:30:50;;;;;;;6.97;5.33;;;;;;;19.27;100.00;98613.13;1684722;84;21002;-76
2022/08/17 01:33:17;;;;;;;6.78;5.42;;;;;;;19.24;100.00;98616.03;1684013;84;21503;-76
2022/08/17 01:35:43;;;;;;;7.05;6.35;;;;;;;19.19;100.00;98614.30;1679264;85;21188;-76
2022/08/17 01:38:10;;;;;;;6.40;5.70;;;;;;;19.17;100.00;98614.46;1670628;84;21803;-76
2022/08/17 01:40:41;;;;;;;6.45;5.10;;;;;;;19.18;100.00;98612.14;1694626;83;21143;-76
2022/08/17 01:43:24;;;;;;;5.97;5.42;;;;;;;19.19;100.00;98611.17;1727413;82;21092;-76
2022/08/17 01:45:53;;;;;;;7.42;5.28;;;;;;;19.21;100.00;98607.08;1734815;81;21439;-76
2022/08/17 01:48:20;;;;;;;7.67;5.80;;;;;;;19.22;100.00;98610.90;1724819;82;21079;-76
2022/08/17 01:50:48;;;;;;;6.60;6.00;;;;;;;19.23;100.00;98605.98;1728753;81;21577;-76
2022/08/17 01:53:25;;;;;;;8.18;5.80;;;;;;;19.19;100.00;98607.22;1727742;80;21504;-76
2022/08/17 01:55:55;;;;;;;6.25;5.65;;;;;;;19.19;100.00;98603.27;1712321;82;21540;-75
2022/08/17 01:58:22;;;;;;;7.17;5.67;;;;;;;19.21;100.00;98597.38;1724540;81;21505;-75
2022/08/17 02:00:50;;;;;;;7.97;6.00;;;;;;;19.22;100.00;98597.72;1727315;80;20996;-76
2022/08/17 02:03:18;;;;;;;10.40;6.28;;;;;;;19.22;100.00;98606.95;1731796;81;20974;-75
2022/08/17 02:05:47;;;;;;;10.53;5.67;;;;;;;19.21;100.00;98603.96;1725349;82;21119;-75
2022/08/17 02:08:15;;;;;;;6.95;5.95;;;;;;;19.23;100.00;98600.70;1727893;81;21129;-75
2022/08/17 02:10:42;;;;;;;7.90;5.87;;;;;;;19.27;100.00;98602.58;1725217;81;21042;-75
2022/08/17 02:13:11;;;;;;;6.58;5.85;;;;;;;19.26;100.00;98604.38;1733459;81;21034;-75
2022/08/17 02:15:40;;;;;;;8.48;6.47;;;;;;;19.25;100.00;98601.41;1732727;81;21010;-75
2022/08/17 02:18:07;;;;;;;11.43;6.17;;;;;;;19.26;100.00;98604.38;1728477;81;21061;-75
2022/08/17 02:20:34;;;;;;;7.58;6.10;;;;;;;19.29;100.00;98608.55;1729135;81;21462;-75
2022/08/17 02:23:00;;;;;;;6.70;5.65;;;;;;;19.30;100.00;98605.43;1727605;82;20946;-75
2022/08/17 02:25:28;;;;;;;5.80;5.30;;;;;;;19.31;100.00;98613.20;1713269;80;21438;-75
2022/08/17 02:27:55;;;;;;;6.37;5.78;;;;;;;19.31;100.00;98603.14;1726035;82;20961;-75
2022/08/17 02:30:23;;;;;;;7.05;6.05;;;;;;;19.35;100.00;98604.53;1725581;82;21122;-75
2022/08/17 02:32:52;;;;;;;7.45;5.50;;;;;;;19.38;100.00;98598.98;1731394;81;21096;-75
2022/08/17 02:35:21;;;;;;;5.95;5.45;;;;;;;19.41;100.00;98597.36;1727411;82;20980;-75
2022/08/17 02:37:48;;;;;;;7.12;5.53;;;;;;;19.45;100.00;98602.70;1729276;80;21016;-74
2022/08/17 02:40:15;;;;;;;7.00;6.37;;;;;;;19.47;100.00;98602.91;1724822;82;21492;-75
2022/08/17 02:42:43;;;;;;;6.20;5.60;;;;;;;19.50;100.00;98596.08;1732144;81;21092;-76
2022/08/17 02:45:13;;;;;;;6.55;5.60;;;;;;;19.53;100.00;98596.28;1734822;81;21006;-76
2022/08/17 02:47:40;;;;;;;6.70;5.25;;;;;;;19.55;100.00;98599.62;1728833;80;21071;-76
2022/08/17 02:50:08;;;;;;;7.37;6.03;;;;;;;19.55;100.00;98599.62;1709811;82;21522;-76
2022/08/17 02:52:37;;;;;;;7.50;6.72;;;;;;;19.55;100.00;98603.09;1728607;81;21497;-76
2022/08/17 02:55:07;;;;;;;8.55;6.17;;;;;;;19.56;100.00;98602.11;1728236;81;21869;-75
2022/08/17 02:57:34;;;;;;;7.00;6.00;;;;;;;19.60;100.00;98607.43;1725914;82;21013;-76
2022/08/17 03:00:00;;;;;;;7.80;5.83;;;;;;;19.62;100.00;98599.37;1731221;81;20965;-76
2022/08/17 03:02:27;;;;;;;8.70;6.30;;;;;;;19.65;100.00;98604.38;1727545;81;21001;-76
2022/08/17 03:04:53;;;;;;;7.75;6.33;;;;;;;19.68;100.00;98604.58;1729546;81;20978;-76
2022/08/17 03:07:20;;;;;;;7.03;6.33;;;;;;;19.69;100.00;98607.56;1728542;81;21062;-76
2022/08/17 03:09:46;;;;;;;7.62;5.97;;;;;;;19.70;100.00;98607.91;1726897;81;21633;-76
2022/08/17 03:12:13;;;;;;;7.20;6.30;;;;;;;19.73;100.00;98612.91;1730109;80;21077;-76
2022/08/17 03:14:41;;;;;;;8.55;6.42;;;;;;;19.74;100.00;98605.34;1727959;81;21028;-76
2022/08/17 03:17:10;;;;;;;8.80;6.45;;;;;;;19.73;100.00;98605.00;1717447;81;21498;-76
2022/08/17 03:19:36;;;;;;;7.65;6.15;;;;;;;19.72;100.00;98612.08;1729877;82;21193;-76
2022/08/17 03:22:07;;;;;;;11.20;6.37;;;;;;;19.71;100.00;98614.37;1727694;82;21425;-76
2022/08/17 03:24:33;;;;;;;11.63;6.42;;;;;;;19.69;100.00;98607.08;1732367;81;21013;-76
2022/08/17 03:27:00;;;;;;;9.00;7.00;;;;;;;19.69;100.00;98617.63;1686053;83;20970;-75
2022/08/17 03:29:26;;;;;;;11.33;7.10;;;;;;;19.70;100.00;98615.34;1686125;83;20974;-75
2022/08/17 03:31:53;;;;;;;9.33;6.87;;;;;;;19.73;100.00;98616.38;1729235;81;21394;-76
2022/08/17 03:34:19;;;;;;;8.63;6.17;;;;;;;19.73;100.00;98612.91;1706617;83;21199;-76
2022/08/17 03:36:46;;;;;;;9.53;7.15;;;;;;;19.74;100.00;98613.26;1685327;83;21045;-75
2022/08/17 03:39:12;;;;;;;10.45;7.85;;;;;;;19.77;100.00;98615.62;1727818;82;21532;-75
2022/08/17 03:41:39;;;;;;;10.68;8.73;;;;;;;19.78;100.00;98619.44;1728122;81;21015;-76
2022/08/17 03:44:06;;;;;;;14.83;9.63;;;;;;;19.80;100.00;98628.02;1703810;83;21026;-75
2022/08/17 03:57:31;;;;;;;13.32;10.00;;;;;;;19.93;100.00;98633.00;1671854;84;21124;-70
2022/08/17 03:59:58;;;;;;;11.78;10.20;;;;;;;19.98;100.00;98637.37;1696955;83;21475;-69
2022/08/17 04:02:28;;;;;;;15.13;10.10;;;;;;;19.99;100.00;98627.62;1761476;81;20966;-70
2022/08/17 04:04:55;;;;;;;13.72;11.12;;;;;;;20.01;100.00;98629.63;1724693;82;21561;-72
2022/08/17 04:07:24;;;;;;;16.73;12.55;;;;;;;20.02;100.00;98627.34;1720310;81;21052;-71
2022/08/17 04:09:50;;;;;;;17.57;12.15;;;;;;;20.01;100.00;98623.03;1731756;81;21102;-68
2022/08/17 04:12:19;;;;;;;21.80;12.65;;;;;;;20.01;100.00;98622.55;1707448;81;20973;-68
2022/08/17 04:14:45;;;;;;;15.60;12.00;;;;;;;20.01;100.00;98620.39;1713424;81;21041;-68
2022/08/17 04:17:12;;;;;;;18.00;11.83;;;;;;;20.02;100.00;98620.25;1741489;81;20933;-68
2022/08/17 04:19:39;;;;;;;15.10;12.98;;;;;;;20.04;100.00;98622.75;1724035;81;21439;-68
2022/08/17 04:22:08;;;;;;;18.45;12.80;;;;;;;20.03;100.00;98628.52;1685679;83;21741;-68
2022/08/17 04:24:37;;;;;;;15.35;12.85;;;;;;;20.02;100.00;98630.81;1740728;81;20950;-68
2022/08/17 04:27:06;;;;;;;19.23;13.00;;;;;;;20.02;100.00;98624.70;1700340;83;21056;-68
2022/08/17 04:29:34;;;;;;;21.00;13.95;;;;;;;20.02;100.00;98623.38;1730115;81;20982;-68
2022/08/17 04:32:02;;;;;;;15.98;13.88;;;;;;;20.01;100.00;98614.63;1726653;82;20970;-68
2022/08/17 04:34:30;;;;;;;18.75;14.93;;;;;;;20.01;100.00;98616.43;1726416;82;21218;-68
2022/08/17 04:36:59;;;;;;;24.40;14.23;;;;;;;20.02;100.00;98612.82;1728188;81;20979;-68
2022/08/17 04:39:27;;;;;;;17.98;13.20;;;;;;;20.03;100.00;98617.12;1690166;82;21014;-68
2022/08/17 04:42:15;;;;;;;18.10;15.13;;;;;;;20.05;100.00;98622.61;1734700;81;21478;-68
2022/08/17 04:44:37;;;;;;;17.52;14.40;;;;;;;20.07;100.00;98620.66;1726656;80;20961;-68
2022/08/17 04:47:07;;;;;;;23.67;15.50;;;;;;;20.10;100.00;98620.38;1726138;80;21715;-68
2022/08/17 04:49:36;;;;;;;21.12;15.78;;;;;;;20.15;100.00;98614.67;1724959;80;21611;-68
2022/08/17 04:52:04;;;;;;;21.40;14.73;;;;;;;20.17;100.00;98614.87;1733257;81;21034;-68
2022/08/17 04:54:33;;;;;;;25.45;16.37;;;;;;;20.24;100.00;98613.78;1695318;83;21427;-68
2022/08/17 04:57:01;;;;;;;18.52;14.87;;;;;;;20.31;100.00;98620.16;1729558;81;21001;-69
2022/08/17 04:59:29;;;;;;;22.20;16.07;;;;;;;20.36;100.00;98619.24;1728434;81;21116;-68
2022/08/17 05:01:58;;;;;;;21.33;15.65;;;;;;;20.43;100.00;98618.18;1728858;81;21009;-68
2022/08/17 05:04:26;;;;;;;15.95;14.23;;;;;;;20.46;100.00;98616.08;1724720;82;21099;-68
2022/08/17 05:06:55;;;;;;;21.52;14.68;;;;;;;20.52;100.00;98619.95;1726952;81;21004;-69
2022/08/17 05:09:23;;;;;;;18.70;15.28;;;;;;;20.58;100.00;98621.50;1727120;82;21118;-68
2022/08/17 05:11:52;;;;;;;21.52;15.65;;;;;;;20.67;100.00;98624.25;1728323;82;21070;-69
2022/08/17 05:14:21;;;;;;;24.72;15.95;;;;;;;20.73;100.00;98623.67;1717061;80;20910;-69
2022/08/17 05:16:49;;;;;;;20.75;14.55;;;;;;;20.79;100.00;98623.05;1687998;83;21067;-69
2022/08/17 05:26:01;;;;;;;26.33;16.30;;;;;;;21.16;100.00;98630.89;1783355;79;22726;-69
2022/08/17 05:28:28;;;;;;;26.52;15.38;;;;;;;21.18;100.00;98628.94;1756667;81;21063;-68
2022/08/17 05:30:56;;;;;;;24.65;15.63;;;;;;;21.25;100.00;98627.36;1757503;80;21112;-69
2022/08/17 05:33:27;;;;;;;21.37;15.25;;;;;;;21.36;100.00;98632.44;1757593;80;21088;-68
2022/08/17 05:35:55;;;;;;;18.57;14.23;;;;;;;21.50;100.00;98629.73;1757963;81;20970;-68
2022/08/17 05:38:23;;;;;;;22.25;16.02;;;;;;;21.64;100.00;98627.36;1757864;81;20894;-69
2022/08/17 05:40:50;;;;;;;19.90;16.65;;;;;;;21.78;100.00;98629.94;1757943;81;20847;-68
2022/08/17 05:43:25;;;;;;;17.92;14.05;;;;;;;21.88;100.00;98628.53;1758102;81;21143;-69
2022/08/17 05:46:03;;;;;;;25.05;14.38;;;;;;;21.97;100.00;98635.55;1755582;81;20959;-68
2022/08/17 05:48:46;;;;;;;23.70;14.83;;;;;;;22.02;100.00;98639.06;1757672;80;20843;-69
2022/08/17 05:51:38;;;;;;;16.37;14.65;;;;;;;22.04;100.00;98641.89;1724520;83;21612;-69
2022/08/17 05:54:34;;;;;;;18.02;14.78;;;;;;;22.05;100.00;98646.70;1728096;81;21073;-73
2022/08/17 05:57:08;;;;;;;21.40;14.70;;;;;;;22.04;100.00;98641.89;1733610;81;21958;-75
2022/08/17 05:59:57;;;;;;;18.65;14.28;;;;;;;22.06;100.00;98645.22;1749546;81;21023;-74
2022/08/17 06:03:13;;;;;;;24.87;16.35;;;;;;;22.10;100.00;98645.75;1755868;81;21569;-73
2022/08/17 06:05:51;;;;;;;17.62;15.83;;;;;;;22.14;100.00;98648.42;1755472;80;21097;-73
2022/08/17 06:08:46;;;;;;;20.88;16.48;;;;;;;22.14;100.00;98647.09;1756294;81;21044;-72
2022/08/17 06:11:25;;;;;;;20.10;14.95;;;;;;;22.19;100.00;98643.47;1756378;81;21246;-73
2022/08/17 06:13:57;;;;;;;31.87;16.35;;;;;;;22.30;100.00;98647.19;1728656;81;21032;-72
2022/08/17 06:16:30;;;;;;;17.92;16.00;;;;;;;22.41;100.00;98652.69;1693407;84;21149;-73
2022/08/17 06:19:11;;;;;;;24.85;16.80;;;;;;;22.53;100.00;98651.44;1673571;84;21091;-72
2022/08/17 06:21:41;;;;;;;19.37;15.18;;;;;;;22.61;100.00;98655.44;1664590;85;21088;-72
2022/08/17 06:24:35;;;;;;;17.42;15.10;;;;;;;22.70;100.00;98651.84;1668045;85;21116;-72
2022/08/17 06:27:11;;;;;;;;;;;;;;;22.75;100.00;98647.39;1618973;88;21086;-72
2022/08/17 06:30:07;;;;;;;21.00;15.65;;;;;;;22.85;100.00;98646.28;1660953;85;20298;-72
2022/08/17 06:32:31;;;;;;;21.07;15.55;;;;;;;22.96;100.00;98649.14;1672066;85;20965;-72
2022/08/17 06:34:59;;;;;;;19.07;15.58;;;;;;;23.10;100.00;98645.02;1673412;85;20986;-74
2022/08/17 06:37:49;;;;;;;19.25;15.53;;;;;;;23.21;100.00;98641.55;1666615;85;21202;-72
2022/08/17 06:40:49;;;;;;;18.25;15.70;;;;;;;23.32;100.00;98645.72;1665378;83;21072;-70
2022/08/17 06:43:27;;;;;;;34.43;18.25;;;;;;;23.45;99.70;98647.88;1686533;83;21323;-71
2022/08/17 06:46:10;;;;;;;19.27;17.17;;;;;;;23.53;99.14;98656.72;1685848;85;21092;-71
2022/08/17 06:48:52;;;;;;;21.50;15.20;;;;;;;23.58;98.69;98654.38;1680941;85;21100;-70
2022/08/17 06:51:38;;;;;;;24.85;16.67;;;;;;;23.64;97.34;98662.18;1695416;83;21093;-70
2022/08/17 06:54:14;;;;;;;20.25;14.83;;;;;;;23.62;96.83;98658.36;1705675;82;21540;-70
2022/08/17 06:56:54;;;;;;;27.27;15.70;;;;;;;23.60;96.22;98661.67;1706109;82;21056;-69
2022/08/17 06:59:32;;;;;;;17.00;15.28;;;;;;;23.55;96.55;98663.19;1703776;83;21561;-72
2022/08/17 07:02:04;;;;;;;22.22;16.37;;;;;;;23.48;96.11;98666.13;1705776;83;21101;-71
2022/08/17 07:04:30;;;;;;;18.20;15.75;;;;;;;23.40;96.33;98665.61;1703708;83;21164;-71
2022/08/17 07:09:48;;;;;;;21.30;15.35;;;;;;;23.42;96.52;98666.78;1692712;82;21037;-72
2022/08/17 07:12:21;;;;;;;20.23;15.18;;;;;;;23.51;96.29;98670.62;1681494;83;21142;-70
2022/08/17 07:15:22;;;;;;;23.10;15.85;;;;;;;23.57;96.20;98672.66;1706700;82;21041;-70
2022/08/17 07:17:49;;;;;;;17.35;15.30;;;;;;;23.67;96.08;98673.30;1696322;83;21283;-69
2022/08/17 07:20:21;;;;;;;26.35;16.23;;;;;;;23.80;94.85;98671.96;1677871;83;21104;-69
2022/08/17 07:23:02;;;;;;;38.28;17.60;;;;;;;23.86;94.81;98672.14;1708329;83;21005;-69
2022/08/17 07:25:29;;;;;;;24.55;17.20;;;;;;;23.96;94.23;98670.15;1702448;82;21267;-71
2022/08/17 07:27:59;;;;;;;18.92;16.90;;;;;;;24.07;93.65;98670.78;1676799;85;21046;-70
2022/08/17 07:30:50;;;;;;;18.90;16.60;;;;;;;24.13;93.19;98675.44;1677209;85;21259;-72
2022/08/17 07:33:27;;;;;;;21.23;17.57;;;;;;;24.16;93.16;98674.60;1677914;85;20987;-71
2022/08/17 07:35:55;;;;;;;20.72;17.10;;;;;;;24.21;92.83;98675.40;1702617;83;21022;-70
2022/08/17 07:38:27;;;;;;;20.80;16.30;;;;;;;24.25;91.94;98674.93;1661524;85;21014;-70
2022/08/17 07:41:01;;;;;;;;;;;;;;;24.28;92.04;98677.25;1695218;83;21094;-71
2022/08/17 07:43:46;;;;;;;20.62;15.78;;;;;;;24.34;92.02;98680.57;1692806;83;21169;-72
2022/08/17 07:49:34;;;;;;;19.57;15.88;;;;;;;24.52;90.76;98682.18;1714217;83;20999;-73
2022/08/17 07:52:06;;;;;;;21.75;16.32;;;;;;;24.57;90.06;98676.69;1689544;83;21010;-71
2022/08/17 07:54:40;;;;;;;19.10;16.05;;;;;;;24.63;90.67;98685.28;1708202;83;20979;-71
2022/08/17 07:57:16;;;;;;;21.12;16.55;;;;;;;24.78;90.38;98673.95;1714775;83;21144;-70
2022/08/17 08:00:08;;;;;;;18.20;16.30;;;;;;;24.95;89.54;98673.72;1690170;83;21867;-72
2022/08/17 08:02:39;;;;;;;19.45;16.02;;;;;;;25.10;88.58;98664.48;1706067;83;21562;-72
2022/08/17 08:05:22;;;;;;;21.33;16.42;;;;;;;25.25;88.37;98665.38;1714674;82;20939;-72
2022/08/17 08:07:53;;;;;;;;;;;;;;;25.37;86.91;98660.00;1717285;82;20967;-73
2022/08/17 08:10:35;;;;;;;21.90;15.78;;;;;;;25.40;86.55;98655.62;1704972;83;21177;-73
2022/08/17 08:13:09;;;;;;;17.85;15.93;;;;;;;25.38;86.79;98656.30;1714682;83;20935;-72
2022/08/17 08:15:47;;;;;;;24.90;15.55;;;;;;;25.43;86.27;98653.61;1714541;83;21585;-71
2022/08/17 08:18:34;;;;;;;17.60;14.85;;;;;;;25.43;86.26;98649.12;1714800;83;21419;-70
2022/08/17 08:21:27;;;;;;;16.70;14.70;;;;;;;25.47;85.30;98657.08;1711685;83;20939;-70
2022/08/17 08:24:18;;;;;;;19.95;15.00;;;;;;;25.40;84.90;98662.28;1706354;83;21136;-72
2022/08/17 08:27:18;;;;;;;22.42;15.85;;;;;;;25.29;86.17;98660.54;1711625;81;21057;-72
2022/08/17 08:30:13;;;;;;;22.90;15.05;;;;;;;25.27;86.44;98662.05;1718196;81;21097;-71
2022/08/17 08:33:08;;;;;;;21.48;14.85;;;;;;;25.21;86.53;98656.09;1713352;82;21148;-72
2022/08/17 08:36:01;;;;;;;17.05;15.25;;;;;;;25.16;86.51;98660.30;1711182;83;21050;-70
2022/08/17 08:38:41;;;;;;;19.30;15.32;;;;;;;25.05;87.35;98653.53;1713942;83;21353;-72
2022/08/17 08:41:22;;;;;;;18.00;16.02;;;;;;;24.95;88.49;98655.60;1710693;82;21119;-72
2022/08/17 08:44:07;;;;;;;17.17;14.65;;;;;;;24.91;89.16;98665.73;1710767;82;21108;-71
2022/08/17 08:47:03;;;;;;;27.60;17.48;;;;;;;24.91;89.26;98660.91;1716718;83;21041;-73
2022/08/17 08:50:10;;;;;;;22.90;16.23;;;;;;;24.96;89.31;98660.75;1711851;82;21560;-72
2022/08/17 08:52:54;;;;;;;17.98;15.10;;;;;;;25.08;88.64;98657.18;1709595;83;21623;-71
2022/08/17 08:56:09;;;;;;;18.17;14.60;;;;;;;25.28;87.88;98662.38;1711199;81;21045;-72
2022/08/17 08:58:59;;;;;;;17.40;14.05;;;;;;;25.47;87.18;98660.25;1719186;83;21743;-69
2022/08/17 09:01:40;;;;;;;15.70;14.23;;;;;;;25.64;84.81;98661.30;1723341;82;21049;-71
2022/08/17 09:04:34;;;;;;;17.07;13.72;;;;;;;25.72;84.10;98655.92;1724745;82;21073;-70
2022/08/17 09:07:16;;;;;;;15.75;14.25;;;;;;;25.86;83.89;98659.62;1714188;83;21290;-71
2022/08/17 09:10:16;;;;;;;15.23;13.68;;;;;;;26.15;82.04;98654.03;1724851;83;21045;-72
2022/08/17 09:13:05;;;;;;;14.90;13.40;;;;;;;26.43;81.11;98653.73;1725501;83;21021;-71
2022/08/17 09:15:41;;;;;;;14.75;13.35;;;;;;;26.71;78.45;98649.40;1725362;82;21069;-72
2022/08/17 09:18:22;;;;;;;26.42;15.25;;;;;;;26.97;77.90;98650.27;1709138;82;21056;-72
2022/08/17 09:20:55;;;;;;;18.40;13.30;;;;;;;27.20;76.64;98652.75;1725762;83;21205;-71
2022/08/17 09:23:45;;;;;;;17.37;12.90;;;;;;;27.30;74.69;98653.28;1723647;83;21045;-71
2022/08/17 09:26:19;;;;;;;16.27;12.80;;;;;;;27.32;74.65;98657.92;1725418;82;21092;-72
2022/08/17 09:28:54;;;;;;;16.70;14.23;;;;;;;27.34;74.86;98645.72;1725771;82;21089;-75
2022/08/17 09:31:34;;;;;;;15.95;13.62;;;;;;;27.40;74.82;98651.11;1725641;81;21052;-73
2022/08/17 09:33:58;;;;;;;15.18;13.32;;;;;;;27.55;73.87;98649.73;1725412;82;21184;-70
2022/08/17 09:36:32;;;;;;;14.25;12.95;;;;;;;27.66;73.09;98647.06;1725816;82;21143;-73
2022/08/17 09:39:12;;;;;;;16.35;13.72;;;;;;;27.66;73.02;98644.39;1723819;83;21232;-70
2022/08/17 09:42:08;;;;;;;21.80;13.35;;;;;;;27.62;73.03;98646.62;1727075;82;21542;-79
2022/08/17 09:44:41;;;;;;;17.07;13.43;;;;;;;27.62;73.70;98648.46;1727371;82;21493;-80
2022/08/17 09:47:42;;;;;;;14.58;13.05;;;;;;;27.63;73.63;98644.77;1725395;83;21253;-81
2022/08/17 09:50:16;;;;;;;21.17;13.20;;;;;;;27.68;73.20;98649.04;1702571;82;21069;-80
2022/08/17 09:52:42;;;;;;;16.02;12.95;;;;;;;27.71;72.83;98640.64;1711176;83;21470;-80
2022/08/17 09:55:10;;;;;;;21.48;14.18;;;;;;;27.70;72.94;98645.67;1727455;83;21002;-78
2022/08/17 09:58:03;;;;;;;15.50;13.90;;;;;;;27.68;72.41;98647.19;1711626;83;21162;-78
2022/08/17 10:00:36;;;;;;;15.50;13.95;;;;;;;27.65;72.55;98644.08;1726529;83;21421;-79
2022/08/17 10:03:24;;;;;;;17.90;13.03;;;;;;;27.63;72.45;98646.11;1727552;83;21299;-84
2022/08/17 10:06:20;;;;;;;18.67;13.35;;;;;;;27.62;72.36;98641.78;1727654;83;20986;-83
2022/08/17 10:09:06;;;;;;;14.00;12.35;;;;;;;27.64;72.19;98639.23;1727625;83;20978;-82
2022/08/17 10:14:38;;;;;;;14.10;12.73;;;;;;;27.95;69.31;98644.23;1727872;83;21161;-86
2022/08/17 10:17:22;;;;;;;16.12;11.90;;;;;;;28.16;68.71;98649.20;1725660;83;21045;-85
2022/08/17 10:20:16;;;;;;;12.20;10.15;;;;;;;28.39;67.67;98652.44;1727692;81;20962;-85
2022/08/17 10:28:32;;;;;;;12.43;10.48;;;;;;;28.91;63.47;98646.56;1670179;84;22008;-86
2022/08/17 10:31:01;;;;;;;12.37;10.93;;;;;;;28.96;63.35;98646.80;1649707;85;21586;-85
2022/08/17 10:33:33;;;;;;;11.15;10.05;;;;;;;29.01;63.52;98648.33;1664578;85;21084;-85
2022/08/17 10:36:21;;;;;;;11.80;10.70;;;;;;;29.10;63.44;98651.66;1659301;86;21112;-85
2022/08/17 10:39:14;;;;;;;11.68;10.48;;;;;;;28.96;63.47;98647.30;1648316;85;21046;-76
2022/08/17 10:41:46;;;;;;;11.75;10.63;;;;;;;28.67;64.27;98647.05;1672798;85;21185;-78
2022/08/17 10:44:26;;;;;;;;;;;;;;;28.32;65.72;98652.42;1675498;85;21085;-74
2022/08/17 10:47:14;;;;;;;11.50;10.28;;;;;;;28.04;66.76;98644.89;1610543;87;20312;-76
2022/08/17 10:49:46;;;;;;;11.95;10.78;;;;;;;27.79;67.06;98643.16;1628904;88;21070;-74
2022/08/17 10:52:29;;;;;;;11.22;10.10;;;;;;;27.57;67.59;98645.53;1628988;87;21434;-75
2022/08/17 10:55:14;;;;;;;15.65;11.88;;;;;;;27.38;68.59;98646.45;1628982;88;21574;-77
2022/08/17 10:57:44;;;;;;;14.33;12.88;;;;;;;27.24;70.98;98651.36;1630309;88;21054;-74
2022/08/17 11:00:29;;;;;;;23.47;14.13;;;;;;;27.10;73.71;98657.58;1630140;88;21069;-76
2022/08/17 11:02:56;;;;;;;20.32;13.60;;;;;;;26.98;76.09;98652.39;1657894;85;21046;-75
2022/08/17 11:05:53;;;;;;;18.40;14.90;;;;;;;26.81;78.69;98649.09;1627401;85;21094;-73
2022/08/17 11:08:40;;;;;;;18.32;11.35;;;;;;;26.67;81.08;98652.11;1645344;85;21248;-74
2022/08/17 11:11:44;;;;;;;14.15;8.43;;;;;;;26.43;80.61;98647.89;1656492;85;21027;-77
2022/08/17 11:14:22;;;;;;;11.40;9.15;;;;;;;26.07;78.62;98641.60;1679998;85;21518;-75
2022/08/17 11:17:28;;;;;;;15.32;9.40;;;;;;;25.67;79.64;98639.64;1679127;85;21031;-72
2022/08/17 11:20:27;;;;;;;13.55;8.78;;;;;;;25.46;80.70;98636.78;1680754;84;21062;-74
2022/08/17 11:23:17;;;;;;;13.13;9.90;;;;;;;25.34;81.91;98633.73;1684827;84;21145;-76
2022/08/17 11:25:52;;;;;;;10.98;9.93;;;;;;;25.32;83.35;98633.08;1672604;85;21105;-77
2022/08/17 11:28:25;;;;;;;13.35;10.75;;;;;;;25.33;85.82;98637.39;1650903;85;21070;-77
2022/08/17 11:30:58;;;;;;;14.20;10.38;;;;;;;25.29;86.11;98633.42;1683238;84;21533;-77
2022/08/17 11:33:37;;;;;;;14.50;10.08;;;;;;;25.15;87.83;98642.68;1691323;83;21534;-77
2022/08/17 11:36:45;;;;;;;11.73;10.65;;;;;;;24.98;87.58;98648.61;1701639;83;21156;-72
2022/08/17 11:39:46;;;;;;;11.78;10.65;;;;;;;24.76;88.61;98631.56;1698980;82;21066;-75
2022/08/17 11:42:38;;;;;;;12.40;11.20;;;;;;;24.61;89.82;98638.09;1704596;82;21189;-74
2022/08/17 11:45:28;;;;;;;12.13;10.93;;;;;;;24.52;90.30;98628.51;1706115;83;21136;-74
2022/08/17 11:52:16;;;;;;;16.82;10.95;;;;;;;24.50;93.30;98624.36;1708214;83;21260;-74
2022/08/17 11:54:18;;;;;;;11.97;10.72;;;;;;;24.48;94.52;98629.84;1685932;83;21554;-74
2022/08/17 11:56:47;;;;;;;13.50;10.60;;;;;;;24.45;94.91;98626.70;1705467;82;22199;-74
2022/08/17 11:59:35;;;;;;;15.72;12.05;;;;;;;24.42;94.58;98623.05;1708079;83;21021;-74
2022/08/17 12:02:29;;;;;;;13.70;10.43;;;;;;;24.38;94.80;98619.91;1710158;83;21046;-74
2022/08/17 12:05:24;;;;;;;25.90;11.80;;;;;;;24.36;94.54;98621.44;1704045;83;21191;-74
2022/08/17 12:08:07;;;;;;;12.18;10.95;;;;;;;24.30;95.92;98615.47;1697194;83;21049;-73
2022/08/17 12:10:38;;;;;;;12.28;11.12;;;;;;;24.23;96.38;98613.62;1688219;83;21069;-73
2022/08/17 12:13:14;;;;;;;13.70;11.20;;;;;;;24.10;96.81;98608.85;1680305;83;21072;-73
2022/08/17 12:15:47;;;;;;;14.28;10.78;;;;;;;23.99;97.42;98614.01;1677720;83;21084;-74
2022/08/17 12:18:28;;;;;;;11.30;9.95;;;;;;;23.93;98.92;98623.17;1701367;83;21277;-74
2022/08/17 12:21:34;;;;;;;10.95;9.88;;;;;;;23.87;99.28;98625.99;1683712;83;21037;-74
2022/08/17 12:24:27;;;;;;;12.25;10.65;;;;;;;23.80;99.91;98630.31;1706553;83;22120;-74
2022/08/17 12:27:00;;;;;;;12.75;10.65;;;;;;;23.71;100.00;98643.27;1716786;82;21100;-73
2022/08/17 12:29:30;;;;;;;;;;;;;;;23.55;100.00;98653.41;1703865;82;21014;-73
2022/08/17 12:32:00;;;;;;;13.28;10.28;;;;;;;23.41;100.00;98646.05;1700828;83;21116;-73
2022/08/17 12:34:35;;;;;;;10.88;9.78;;;;;;;23.34;100.00;98647.22;1710927;83;21554;-73